sensor_id;sensor_type;location;lat;lon;timestamp;pressure;altitude;pressure_sealevel;temperature;humidity
8705;BME280;4389;41.932;25.904;2024-03-22T00:02:03;-16283.06;;;8.06;100.00
8705;BME280;4389;41.932;25.904;2024-03-22T00:04:29;-16283.22;;;8.07;100.00
8705;BME280;4389;41.932;25.904;2024-03-22T00:06:56;-16284.16;;;8.10;100.00
8705;BME280;4389;41.932;25.904;2024-03-22T00:09:22;-16283.22;;;8.07;100.00
8705;BME280;4389;41.932;25.904;2024-03-22T00:11:49;-16284.69;;;8.12;100.00
8705;BME280;4389;41.932;25.904;2024-03-22T00:14:15;-16283.75;;;8.09;100.00
8705;BME280;4389;41.932;25.904;2024-03-22T00:16:42;-16284.41;;;8.11;100.00
8705;BME280;4389;41.932;25.904;2024-03-22T00:19:09;-16280.16;;;7.95;100.00
8705;BME280;4389;41.932;25.904;2024-03-22T00:21:36;-16275.34;;;7.77;100.00
8705;BME280;4389;41.932;25.904;2024-03-22T00:24:02;-16272.28;;;7.66;100.00
8705;BME280;4389;41.932;25.904;2024-03-22T00:26:28;-16267.22;;;7.47;100.00
8705;BME280;4389;41.932;25.904;2024-03-22T00:28:54;-16267.22;;;7.47;100.00
8705;BME280;4389;41.932;25.904;2024-03-22T00:31:23;-16267.75;;;7.49;100.00
8705;BME280;4389;41.932;25.904;2024-03-22T00:33:49;-16265.75;;;7.41;100.00
8705;BME280;4389;41.932;25.904;2024-03-22T00:36:17;-16264.84;;;7.38;100.00
8705;BME280;4389;41.932;25.904;2024-03-22T00:38:42;-16264.69;;;7.37;100.00
8705;BME280;4389;41.932;25.904;2024-03-22T00:41:09;-16263.50;;;7.33;100.00
8705;BME280;4389;41.932;25.904;2024-03-22T00:43:35;-16264.84;;;7.38;100.00
8705;BME280;4389;41.932;25.904;2024-03-22T00:46:02;-16264.16;;;7.35;100.00
8705;BME280;4389;41.932;25.904;2024-03-22T00:48:28;-16262.44;;;7.29;100.00
8705;BME280;4389;41.932;25.904;2024-03-22T00:50:55;-16258.56;;;7.14;100.00
8705;BME280;4389;41.932;25.904;2024-03-22T00:53:22;-16255.78;;;7.04;100.00
8705;BME280;4389;41.932;25.904;2024-03-22T00:55:49;-16258.44;;;7.14;100.00
8705;BME280;4389;41.932;25.904;2024-03-22T00:58:17;-16257.63;;;7.11;100.00
8705;BME280;4389;41.932;25.904;2024-03-22T01:00:45;-16261.50;;;7.25;100.00
8705;BME280;4389;41.932;25.904;2024-03-22T01:03:11;-16262.16;;;7.28;100.00
8705;BME280;4389;41.932;25.904;2024-03-22T01:05:37;-16259.50;;;7.18;100.00
8705;BME280;4389;41.932;25.904;2024-03-22T01:08:06;-16255.66;;;7.03;100.00
8705;BME280;4389;41.932;25.904;2024-03-22T01:10:34;-16248.59;;;6.77;100.00
8705;BME280;4389;41.932;25.904;2024-03-22T01:13:00;-16248.72;;;6.77;100.00
8705;BME280;4389;41.932;25.904;2024-03-22T01:15:27;-16247.78;;;6.74;100.00
8705;BME280;4389;41.932;25.904;2024-03-22T01:17:53;-16249.13;;;6.79;100.00
8705;BME280;4389;41.932;25.904;2024-03-22T01:20:20;-16243.13;;;6.56;100.00
8705;BME280;4389;41.932;25.904;2024-03-22T01:22:45;-16239.53;;;6.43;100.00
8705;BME280;4389;41.932;25.904;2024-03-22T01:25:12;-16238.72;;;6.40;100.00
8705;BME280;4389;41.932;25.904;2024-03-22T01:27:40;-16237.78;;;6.36;100.00
8705;BME280;4389;41.932;25.904;2024-03-22T01:30:07;-16235.53;;;6.28;100.00
8705;BME280;4389;41.932;25.904;2024-03-22T01:32:34;-16236.47;;;6.31;100.00
8705;BME280;4389;41.932;25.904;2024-03-22T01:35:01;-16233.94;;;6.22;100.00
8705;BME280;4389;41.932;25.904;2024-03-22T01:37:27;-16233.25;;;6.19;100.00
8705;BME280;4389;41.932;25.904;2024-03-22T01:39:53;-16233.38;;;6.20;100.00
8705;BME280;4389;41.932;25.904;2024-03-22T01:42:19;-16231.13;;;6.11;100.00
8705;BME280;4389;41.932;25.904;2024-03-22T01:44:48;-16221.25;;;5.74;100.00
8705;BME280;4389;41.932;25.904;2024-03-22T01:47:15;-16214.47;;;5.49;100.00
8705;BME280;4389;41.932;25.904;2024-03-22T01:49:42;-16210.72;;;5.35;100.00
8705;BME280;4389;41.932;25.904;2024-03-22T01:52:08;-16207.13;;;5.21;100.00
8705;BME280;4389;41.932;25.904;2024-03-22T01:54:35;-16209.66;;;5.31;100.00
8705;BME280;4389;41.932;25.904;2024-03-22T01:57:01;-16208.59;;;5.27;100.00
8705;BME280;4389;41.932;25.904;2024-03-22T01:59:28;-16210.59;;;5.34;100.00
8705;BME280;4389;41.932;25.904;2024-03-22T02:01:56;-16215.13;;;5.51;100.00
8705;BME280;4389;41.932;25.904;2024-03-22T02:04:22;-16219.66;;;5.68;100.00
8705;BME280;4389;41.932;25.904;2024-03-22T02:06:48;-16220.47;;;5.71;100.00
8705;BME280;4389;41.932;25.904;2024-03-22T02:09:15;-16219.53;;;5.68;100.00
8705;BME280;4389;41.932;25.904;2024-03-22T02:11:41;-16219.13;;;5.66;100.00
8705;BME280;4389;41.932;25.904;2024-03-22T02:14:09;-16218.19;;;5.63;100.00
8705;BME280;4389;41.932;25.904;2024-03-22T02:16:35;-16215.00;;;5.51;100.00
8705;BME280;4389;41.932;25.904;2024-03-22T02:19:03;-16212.88;;;5.43;100.00
8705;BME280;4389;41.932;25.904;2024-03-22T02:21:29;-16210.19;;;5.33;100.00
8705;BME280;4389;41.932;25.904;2024-03-22T02:23:57;-16208.59;;;5.27;100.00
8705;BME280;4389;41.932;25.904;2024-03-22T02:26:23;-16203.53;;;5.08;100.00
8705;BME280;4389;41.932;25.904;2024-03-22T02:28:49;-16206.59;;;5.19;100.00
8705;BME280;4389;41.932;25.904;2024-03-22T02:31:15;-16207.25;;;5.22;100.00
8705;BME280;4389;41.932;25.904;2024-03-22T02:33:42;-16208.06;;;5.25;100.00
8705;BME280;4389;41.932;25.904;2024-03-22T02:36:08;-16205.13;;;5.14;100.00
8705;BME280;4389;41.932;25.904;2024-03-22T02:38:35;-16204.34;;;5.11;100.00
8705;BME280;4389;41.932;25.904;2024-03-22T02:41:02;-16206.19;;;5.18;100.00
8705;BME280;4389;41.932;25.904;2024-03-22T02:43:29;-16203.66;;;5.08;100.00
8705;BME280;4389;41.932;25.904;2024-03-22T02:45:55;-16199.53;;;4.93;100.00
8705;BME280;4389;41.932;25.904;2024-03-22T02:48:22;-16195.94;;;4.79;100.00
8705;BME280;4389;41.932;25.904;2024-03-22T02:50:48;-16196.06;;;4.80;100.00
8705;BME280;4389;41.932;25.904;2024-03-22T02:53:14;-16199.81;;;4.94;100.00
8705;BME280;4389;41.932;25.904;2024-03-22T02:55:40;-16197.13;;;4.84;100.00
8705;BME280;4389;41.932;25.904;2024-03-22T02:58:09;-16192.88;;;4.68;100.00
8705;BME280;4389;41.932;25.904;2024-03-22T03:00:36;-16188.06;;;4.50;100.00
8705;BME280;4389;41.932;25.904;2024-03-22T03:03:04;-16187.25;;;4.47;100.00
8705;BME280;4389;41.932;25.904;2024-03-22T03:05:30;-16179.53;;;4.18;100.00
8705;BME280;4389;41.932;25.904;2024-03-22T03:07:57;-16182.72;;;4.30;100.00
8705;BME280;4389;41.932;25.904;2024-03-22T03:10:22;-16182.47;;;4.29;100.00
8705;BME280;4389;41.932;25.904;2024-03-22T03:12:49;-16184.88;;;4.38;100.00
8705;BME280;4389;41.932;25.904;2024-03-22T03:15:17;-16187.53;;;4.48;100.00
8705;BME280;4389;41.932;25.904;2024-03-22T03:17:44;-16188.34;;;4.51;100.00
8705;BME280;4389;41.932;25.904;2024-03-22T03:20:10;-16188.59;;;4.52;100.00
8705;BME280;4389;41.932;25.904;2024-03-22T03:22:39;-16191.53;;;4.63;100.00
8705;BME280;4389;41.932;25.904;2024-03-22T03:25:05;-16191.25;;;4.62;100.00
8705;BME280;4389;41.932;25.904;2024-03-22T03:27:32;-16192.06;;;4.65;100.00
8705;BME280;4389;41.932;25.904;2024-03-22T03:29:58;-16188.88;;;4.53;100.00
8705;BME280;4389;41.932;25.904;2024-03-22T03:32:26;-16187.00;;;4.46;100.00
8705;BME280;4389;41.932;25.904;2024-03-22T03:34:52;-16186.19;;;4.43;100.00
8705;BME280;4389;41.932;25.904;2024-03-22T03:37:19;-16186.72;;;4.45;100.00
8705;BME280;4389;41.932;25.904;2024-03-22T03:39:44;-16184.47;;;4.36;100.00
8705;BME280;4389;41.932;25.904;2024-03-22T03:42:11;-16184.72;;;4.37;100.00
8705;BME280;4389;41.932;25.904;2024-03-22T03:44:37;-16183.41;;;4.32;100.00
8705;BME280;4389;41.932;25.904;2024-03-22T03:47:04;-16183.00;;;4.31;100.00
8705;BME280;4389;41.932;25.904;2024-03-22T03:49:31;-16182.47;;;4.29;100.00
8705;BME280;4389;41.932;25.904;2024-03-22T03:51:58;-16181.25;;;4.24;100.00
8705;BME280;4389;41.932;25.904;2024-03-22T03:54:24;-16176.47;;;4.07;100.00
8705;BME280;4389;41.932;25.904;2024-03-22T03:56:51;-16172.88;;;3.93;100.00
8705;BME280;4389;41.932;25.904;2024-03-22T03:59:16;-16169.41;;;3.80;100.00
8705;BME280;4389;41.932;25.904;2024-03-22T04:01:43;-16168.06;;;3.75;100.00
8705;BME280;4389;41.932;25.904;2024-03-22T04:04:09;-16161.66;;;3.51;100.00
8705;BME280;4389;41.932;25.904;2024-03-22T04:06:37;-16155.78;;;3.29;100.00
8705;BME280;4389;41.932;25.904;2024-03-22T04:09:03;-16160.06;;;3.45;100.00
8705;BME280;4389;41.932;25.904;2024-03-22T04:11:31;-16161.53;;;3.51;100.00
8705;BME280;4389;41.932;25.904;2024-03-22T04:13:56;-16161.94;;;3.52;100.00
8705;BME280;4389;41.932;25.904;2024-03-22T04:16:23;-16160.84;;;3.48;100.00
8705;BME280;4389;41.932;25.904;2024-03-22T04:18:49;-16162.88;;;3.56;100.00
8705;BME280;4389;41.932;25.904;2024-03-22T04:21:16;-16164.06;;;3.60;100.00
8705;BME280;4389;41.932;25.904;2024-03-22T04:23:43;-16166.31;;;3.69;100.00
8705;BME280;4389;41.932;25.904;2024-03-22T04:26:10;-16168.47;;;3.77;100.00
8705;BME280;4389;41.932;25.904;2024-03-22T04:28:35;-16170.47;;;3.84;100.00
8705;BME280;4389;41.932;25.904;2024-03-22T04:31:04;-16169.41;;;3.80;100.00
8705;BME280;4389;41.932;25.904;2024-03-22T04:33:31;-16172.59;;;3.92;100.00
8705;BME280;4389;41.932;25.904;2024-03-22T04:35:58;-16177.13;;;4.09;100.00
8705;BME280;4389;41.932;25.904;2024-03-22T04:38:25;-16181.94;;;4.27;100.00
8705;BME280;4389;41.932;25.904;2024-03-22T04:40:53;-16183.00;;;4.31;100.00
8705;BME280;4389;41.932;25.904;2024-03-22T04:43:21;-16187.81;;;4.49;100.00
8705;BME280;4389;41.932;25.904;2024-03-22T04:45:48;-16188.88;;;4.53;100.00
8705;BME280;4389;41.932;25.904;2024-03-22T04:48:16;-16191.41;;;4.62;100.00
8705;BME280;4389;41.932;25.904;2024-03-22T04:50:43;-16190.88;;;4.60;100.00
8705;BME280;4389;41.932;25.904;2024-03-22T04:53:09;-16189.94;;;4.57;100.00
8705;BME280;4389;41.932;25.904;2024-03-22T04:55:36;-16194.88;;;4.75;100.00
8705;BME280;4389;41.932;25.904;2024-03-22T04:58:04;-16197.41;;;4.85;100.00
8705;BME280;4389;41.932;25.904;2024-03-22T05:00:31;-16199.00;;;4.91;100.00
8705;BME280;4389;41.932;25.904;2024-03-22T05:02:57;-16199.94;;;4.94;100.00
8705;BME280;4389;41.932;25.904;2024-03-22T05:05:24;-16202.47;;;5.04;100.00
8705;BME280;4389;41.932;25.904;2024-03-22T05:07:49;-16202.19;;;5.03;100.00
8705;BME280;4389;41.932;25.904;2024-03-22T05:10:16;-16206.19;;;5.18;100.00
8705;BME280;4389;41.932;25.904;2024-03-22T05:12:42;-16207.81;;;5.24;100.00
8705;BME280;4389;41.932;25.904;2024-03-22T05:15:10;-16208.34;;;5.26;100.00
8705;BME280;4389;41.932;25.904;2024-03-22T05:17:36;-16207.13;;;5.21;100.00
8705;BME280;4389;41.932;25.904;2024-03-22T05:20:05;-16205.53;;;5.15;100.00
8705;BME280;4389;41.932;25.904;2024-03-22T05:22:34;-16203.00;;;5.06;100.00
8705;BME280;4389;41.932;25.904;2024-03-22T05:25:01;-16209.41;;;5.30;100.00
8705;BME280;4389;41.932;25.904;2024-03-22T05:27:27;-16211.25;;;5.37;100.00
8705;BME280;4389;41.932;25.904;2024-03-22T05:29:53;-16214.34;;;5.48;100.00
8705;BME280;4389;41.932;25.904;2024-03-22T05:32:21;-16216.19;;;5.55;100.00
8705;BME280;4389;41.932;25.904;2024-03-22T05:34:47;-16223.94;;;5.84;100.00
8705;BME280;4389;41.932;25.904;2024-03-22T05:37:13;-16221.94;;;5.77;100.00
8705;BME280;4389;41.932;25.904;2024-03-22T05:39:40;-16220.06;;;5.70;100.00
8705;BME280;4389;41.932;25.904;2024-03-22T05:42:06;-16220.31;;;5.71;100.00
8705;BME280;4389;41.932;25.904;2024-03-22T05:44:33;-16223.94;;;5.84;100.00
8705;BME280;4389;41.932;25.904;2024-03-22T05:46:59;-16230.84;;;6.10;100.00
8705;BME280;4389;41.932;25.904;2024-03-22T05:49:27;-16235.78;;;6.29;100.00
8705;BME280;4389;41.932;25.904;2024-03-22T05:51:53;-16236.06;;;6.30;100.00
8705;BME280;4389;41.932;25.904;2024-03-22T05:54:20;-16233.94;;;6.22;100.00
8705;BME280;4389;41.932;25.904;2024-03-22T05:56:46;-16238.06;;;6.37;100.00
8705;BME280;4389;41.932;25.904;2024-03-22T05:59:12;-16238.31;;;6.38;100.00
8705;BME280;4389;41.932;25.904;2024-03-22T06:01:38;-16245.13;;;6.64;100.00
8705;BME280;4389;41.932;25.904;2024-03-22T06:04:05;-16247.25;;;6.72;100.00
8705;BME280;4389;41.932;25.904;2024-03-22T06:06:34;-16251.25;;;6.87;100.00
8705;BME280;4389;41.932;25.904;2024-03-22T06:09:01;-16255.25;;;7.02;100.00
8705;BME280;4389;41.932;25.904;2024-03-22T06:11:29;-16260.03;;;7.20;100.00
8705;BME280;4389;41.932;25.904;2024-03-22T06:13:56;-16260.97;;;7.23;94.04
8705;BME280;4389;41.932;25.904;2024-03-22T06:16:22;-16261.63;;;7.26;90.22
8705;BME280;4389;41.932;25.904;2024-03-22T06:18:49;-16261.38;;;7.25;89.43
8705;BME280;4389;41.932;25.904;2024-03-22T06:21:15;-16258.97;;;7.16;86.99
8705;BME280;4389;41.932;25.904;2024-03-22T06:23:48;-16261.38;;;7.25;88.71
8705;BME280;4389;41.932;25.904;2024-03-22T06:26:14;-16262.31;;;7.28;89.36
8705;BME280;4389;41.932;25.904;2024-03-22T06:28:41;-16265.63;;;7.41;90.75
8705;BME280;4389;41.932;25.904;2024-03-22T06:31:07;-16264.56;;;7.37;89.18
8705;BME280;4389;41.932;25.904;2024-03-22T06:33:34;-16266.81;;;7.45;88.77
8705;BME280;4389;41.932;25.904;2024-03-22T06:36:00;-16269.91;;;7.57;87.45
8705;BME280;4389;41.932;25.904;2024-03-22T06:38:27;-16272.81;;;7.68;86.59
8705;BME280;4389;41.932;25.904;2024-03-22T06:40:54;-16272.56;;;7.67;86.13
8705;BME280;4389;41.932;25.904;2024-03-22T06:43:21;-16273.09;;;7.69;83.77
8705;BME280;4389;41.932;25.904;2024-03-22T06:45:46;-16272.81;;;7.68;83.61
8705;BME280;4389;41.932;25.904;2024-03-22T06:48:13;-16276.56;;;7.82;84.12
8705;BME280;4389;41.932;25.904;2024-03-22T06:50:41;-16278.16;;;7.88;84.64
8705;BME280;4389;41.932;25.904;2024-03-22T06:53:08;-16285.59;;;8.16;82.89
8705;BME280;4389;41.932;25.904;2024-03-22T06:55:35;-16285.59;;;8.16;79.79
8705;BME280;4389;41.932;25.904;2024-03-22T06:58:03;-16284.16;;;8.10;83.09
8705;BME280;4389;41.932;25.904;2024-03-22T07:00:29;-16288.28;;;8.26;81.78
8705;BME280;4389;41.932;25.904;2024-03-22T07:02:56;-16287.47;;;8.23;77.38
8705;BME280;4389;41.932;25.904;2024-03-22T07:05:22;-16289.88;;;8.32;78.85
8705;BME280;4389;41.932;25.904;2024-03-22T07:07:48;-16294.41;;;8.49;77.91
8705;BME280;4389;41.932;25.904;2024-03-22T07:10:15;-16291.72;;;8.39;77.54
8705;BME280;4389;41.932;25.904;2024-03-22T07:12:42;-16291.88;;;8.39;76.46
8705;BME280;4389;41.932;25.904;2024-03-22T07:15:10;-16290.66;;;8.35;76.32
8705;BME280;4389;41.932;25.904;2024-03-22T07:17:37;-16294.13;;;8.48;76.63
8705;BME280;4389;41.932;25.904;2024-03-22T07:20:03;-16294.94;;;8.51;75.12
8705;BME280;4389;41.932;25.904;2024-03-22T07:22:35;-16292.66;;;8.42;75.48
8705;BME280;4389;41.932;25.904;2024-03-22T07:25:00;-16296.25;;;8.56;76.88
8705;BME280;4389;41.932;25.904;2024-03-22T07:27:27;-16297.72;;;8.61;76.41
8705;BME280;4389;41.932;25.904;2024-03-22T07:29:55;-16301.06;;;8.74;71.78
8705;BME280;4389;41.932;25.904;2024-03-22T07:32:23;-16301.31;;;8.75;71.49
8705;BME280;4389;41.932;25.904;2024-03-22T07:34:49;-16302.13;;;8.78;72.45
8705;BME280;4389;41.932;25.904;2024-03-22T07:37:15;-16302.91;;;8.81;69.27
8705;BME280;4389;41.932;25.904;2024-03-22T07:39:41;-16306.38;;;8.93;67.96
8705;BME280;4389;41.932;25.904;2024-03-22T07:42:08;-16308.50;;;9.01;68.26
8705;BME280;4389;41.932;25.904;2024-03-22T07:44:34;-16306.91;;;8.95;66.01
8705;BME280;4389;41.932;25.904;2024-03-22T07:47:00;-16307.72;;;8.98;67.82
8705;BME280;4389;41.932;25.904;2024-03-22T07:49:27;-16310.91;;;9.10;66.34
8705;BME280;4389;41.932;25.904;2024-03-22T07:51:55;-16311.97;;;9.14;66.58
8705;BME280;4389;41.932;25.904;2024-03-22T07:54:20;-16312.63;;;9.17;63.80
8705;BME280;4389;41.932;25.904;2024-03-22T07:56:47;-16316.50;;;9.31;60.11
8705;BME280;4389;41.932;25.904;2024-03-22T07:59:13;-16315.03;;;9.26;60.74
8705;BME280;4389;41.932;25.904;2024-03-22T08:01:40;-16319.94;;;9.44;61.09
8705;BME280;4389;41.932;25.904;2024-03-22T08:04:06;-16321.81;;;9.51;59.63
8705;BME280;4389;41.932;25.904;2024-03-22T08:06:34;-16320.22;;;9.45;58.28
8705;BME280;4389;41.932;25.904;2024-03-22T08:09:00;-16319.41;;;9.42;58.14
8705;BME280;4389;41.932;25.904;2024-03-22T08:11:28;-16323.16;;;9.56;58.64
8705;BME280;4389;41.932;25.904;2024-03-22T08:13:54;-16324.22;;;9.60;58.92
8705;BME280;4389;41.932;25.904;2024-03-22T08:16:27;-16319.16;;;9.41;56.49
8705;BME280;4389;41.932;25.904;2024-03-22T08:18:53;-16323.41;;;9.57;58.12
8705;BME280;4389;41.932;25.904;2024-03-22T08:21:19;-16328.06;;;9.75;59.17
8705;BME280;4389;41.932;25.904;2024-03-22T08:23:46;-16328.19;;;9.75;58.43
8705;BME280;4389;41.932;25.904;2024-03-22T08:26:13;-16333.78;;;9.96;58.54
8705;BME280;4389;41.932;25.904;2024-03-22T08:28:39;-16333.53;;;9.95;58.38
8705;BME280;4389;41.932;25.904;2024-03-22T08:31:06;-16335.91;;;10.04;58.63
8705;BME280;4389;41.932;25.904;2024-03-22T08:33:32;-16338.31;;;10.13;59.33
8705;BME280;4389;41.932;25.904;2024-03-22T08:35:58;-16338.06;;;10.12;55.25
8705;BME280;4389;41.932;25.904;2024-03-22T08:38:24;-16341.25;;;10.24;55.56
8705;BME280;4389;41.932;25.904;2024-03-22T08:40:54;-16344.44;;;10.36;54.44
8705;BME280;4389;41.932;25.904;2024-03-22T08:43:20;-16346.03;;;10.42;53.72
8705;BME280;4389;41.932;25.904;2024-03-22T08:45:48;-16344.16;;;10.35;53.89
8705;BME280;4389;41.932;25.904;2024-03-22T08:48:14;-16347.50;;;10.48;54.59
8705;BME280;4389;41.932;25.904;2024-03-22T08:50:42;-16348.44;;;10.51;54.60
8705;BME280;4389;41.932;25.904;2024-03-22T08:53:08;-16346.03;;;10.42;52.62
8705;BME280;4389;41.932;25.904;2024-03-22T08:55:34;-16341.66;;;10.26;54.54
8705;BME280;4389;41.932;25.904;2024-03-22T08:58:02;-16347.34;;;10.47;53.83
8705;BME280;4389;41.932;25.904;2024-03-22T09:00:29;-16353.22;;;10.69;53.41
8705;BME280;4389;41.932;25.904;2024-03-22T09:02:55;-16355.06;;;10.76;55.28
8705;BME280;4389;41.932;25.904;2024-03-22T09:05:22;-16353.22;;;10.69;52.84
8705;BME280;4389;41.932;25.904;2024-03-22T09:07:47;-16348.69;;;10.52;54.10
8705;BME280;4389;41.932;25.904;2024-03-22T09:10:15;-16348.97;;;10.53;52.56
8705;BME280;4389;41.932;25.904;2024-03-22T09:12:41;-16352.69;;;10.67;52.92
8705;BME280;4389;41.932;25.904;2024-03-22T09:15:10;-16359.34;;;10.92;51.58
8705;BME280;4389;41.932;25.904;2024-03-22T09:17:35;-16358.00;;;10.87;52.94
8705;BME280;4389;41.932;25.904;2024-03-22T09:20:02;-16353.47;;;10.70;53.33
8705;BME280;4389;41.932;25.904;2024-03-22T09:22:29;-16357.47;;;10.85;52.33
8705;BME280;4389;41.932;25.904;2024-03-22T09:24:58;-16360.13;;;10.95;51.75
8705;BME280;4389;41.932;25.904;2024-03-22T09:27:24;-16361.59;;;11.01;51.56
8705;BME280;4389;41.932;25.904;2024-03-22T09:29:50;-16361.84;;;11.02;50.80
8705;BME280;4389;41.932;25.904;2024-03-22T09:32:17;-16364.50;;;11.12;51.58
8705;BME280;4389;41.932;25.904;2024-03-22T09:34:44;-16364.66;;;11.12;50.93
8705;BME280;4389;41.932;25.904;2024-03-22T09:37:10;-16364.38;;;11.11;49.79
8705;BME280;4389;41.932;25.904;2024-03-22T09:39:37;-16363.44;;;11.08;50.09
8705;BME280;4389;41.932;25.904;2024-03-22T09:42:06;-16363.19;;;11.07;49.65
8705;BME280;4389;41.932;25.904;2024-03-22T09:44:33;-16361.06;;;10.99;49.80
8705;BME280;4389;41.932;25.904;2024-03-22T09:46:59;-16365.44;;;11.15;50.41
8705;BME280;4389;41.932;25.904;2024-03-22T09:49:27;-16369.97;;;11.32;50.18
8705;BME280;4389;41.932;25.904;2024-03-22T09:51:54;-16375.53;;;11.53;49.32
8705;BME280;4389;41.932;25.904;2024-03-22T09:54:23;-16380.59;;;11.72;46.56
8705;BME280;4389;41.932;25.904;2024-03-22T09:56:50;-16382.88;;;11.81;48.95
8705;BME280;4389;41.932;25.904;2024-03-22T09:59:17;-16385.41;;;11.90;48.57
8705;BME280;4389;41.932;25.904;2024-03-22T10:01:44;-16383.66;;;11.84;47.68
8705;BME280;4389;41.932;25.904;2024-03-22T10:04:11;-16380.59;;;11.72;48.78
8705;BME280;4389;41.932;25.904;2024-03-22T10:06:38;-16381.66;;;11.76;47.91
8705;BME280;4389;41.932;25.904;2024-03-22T10:09:05;-16383.94;;;11.85;47.26
8705;BME280;4389;41.932;25.904;2024-03-22T10:11:31;-16383.41;;;11.83;46.92
8705;BME280;4389;41.932;25.904;2024-03-22T10:14:00;-16387.25;;;11.97;46.30
8705;BME280;4389;41.932;25.904;2024-03-22T10:16:25;-16389.38;;;12.05;46.22
8705;BME280;4389;41.932;25.904;2024-03-22T10:18:52;-16386.97;;;11.96;46.86
8705;BME280;4389;41.932;25.904;2024-03-22T10:21:19;-16389.78;;;12.07;46.36
8705;BME280;4389;41.932;25.904;2024-03-22T10:23:48;-16393.38;;;12.20;45.42
8705;BME280;4389;41.932;25.904;2024-03-22T10:26:16;-16397.22;;;12.35;44.93
8705;BME280;4389;41.932;25.904;2024-03-22T10:28:46;-16399.47;;;12.43;43.81
8705;BME280;4389;41.932;25.904;2024-03-22T10:31:13;-16397.09;;;12.34;44.63
8705;BME280;4389;41.932;25.904;2024-03-22T10:33:40;-16396.81;;;12.33;45.00
8705;BME280;4389;41.932;25.904;2024-03-22T10:36:07;-16392.56;;;12.17;46.34
8705;BME280;4389;41.932;25.904;2024-03-22T10:38:36;-16395.50;;;12.28;45.29
8705;BME280;4389;41.932;25.904;2024-03-22T10:41:05;-16398.16;;;12.38;46.60
8705;BME280;4389;41.932;25.904;2024-03-22T10:43:32;-16396.28;;;12.31;44.80
8705;BME280;4389;41.932;25.904;2024-03-22T10:46:00;-16396.03;;;12.30;44.70
8705;BME280;4389;41.932;25.904;2024-03-22T10:48:30;-16402.94;;;12.56;46.20
8705;BME280;4389;41.932;25.904;2024-03-22T10:50:59;-16407.84;;;12.75;44.02
8705;BME280;4389;41.932;25.904;2024-03-22T10:53:26;-16407.72;;;12.74;44.04
8705;BME280;4389;41.932;25.904;2024-03-22T10:55:53;-16405.06;;;12.64;43.45
8705;BME280;4389;41.932;25.904;2024-03-22T10:58:26;-16404.53;;;12.62;43.89
8705;BME280;4389;41.932;25.904;2024-03-22T11:00:53;-16403.47;;;12.58;43.47
8705;BME280;4389;41.932;25.904;2024-03-22T11:03:20;-16401.88;;;12.52;43.43
8705;BME280;4389;41.932;25.904;2024-03-22T11:05:46;-16400.28;;;12.46;43.39
8705;BME280;4389;41.932;25.904;2024-03-22T11:08:23;-16407.84;;;12.75;42.72
8705;BME280;4389;41.932;25.904;2024-03-22T11:10:49;-16407.59;;;12.74;41.41
8705;BME280;4389;41.932;25.904;2024-03-22T11:13:17;-16410.91;;;12.86;42.32
8705;BME280;4389;41.932;25.904;2024-03-22T11:15:47;-16416.88;;;13.09;41.75
8705;BME280;4389;41.932;25.904;2024-03-22T11:18:14;-16416.50;;;13.07;42.12
8705;BME280;4389;41.932;25.904;2024-03-22T11:20:41;-16410.09;;;12.83;42.58
8705;BME280;4389;41.932;25.904;2024-03-22T11:23:09;-16411.03;;;12.87;42.06
8705;BME280;4389;41.932;25.904;2024-03-22T11:25:35;-16413.28;;;12.95;41.14
8705;BME280;4389;41.932;25.904;2024-03-22T11:28:02;-16419.94;;;13.20;43.05
8705;BME280;4389;41.932;25.904;2024-03-22T11:30:28;-16420.59;;;13.23;42.40
8705;BME280;4389;41.932;25.904;2024-03-22T11:32:57;-16418.88;;;13.16;42.01
8705;BME280;4389;41.932;25.904;2024-03-22T11:35:22;-16418.88;;;13.16;42.11
8705;BME280;4389;41.932;25.904;2024-03-22T11:37:50;-16423.41;;;13.33;41.44
8705;BME280;4389;41.932;25.904;2024-03-22T11:40:16;-16427.66;;;13.49;41.26
8705;BME280;4389;41.932;25.904;2024-03-22T11:42:45;-16427.91;;;13.50;40.40
8705;BME280;4389;41.932;25.904;2024-03-22T11:45:14;-16425.53;;;13.41;41.64
8705;BME280;4389;41.932;25.904;2024-03-22T11:47:41;-16426.19;;;13.44;40.93
8705;BME280;4389;41.932;25.904;2024-03-22T11:50:11;-16429.25;;;13.55;41.59
8705;BME280;4389;41.932;25.904;2024-03-22T11:52:40;-16433.22;;;13.70;40.95
8705;BME280;4389;41.932;25.904;2024-03-22T11:55:06;-16434.94;;;13.76;39.93
8705;BME280;4389;41.932;25.904;2024-03-22T11:57:33;-16432.97;;;13.69;39.96
8705;BME280;4389;41.932;25.904;2024-03-22T12:00:00;-16432.41;;;13.67;39.26
8705;BME280;4389;41.932;25.904;2024-03-22T12:02:28;-16429.25;;;13.55;39.06
8705;BME280;4389;41.932;25.904;2024-03-22T12:04:54;-16434.16;;;13.73;40.20
8705;BME280;4389;41.932;25.904;2024-03-22T12:07:23;-16440.38;;;13.97;39.70
8705;BME280;4389;41.932;25.904;2024-03-22T12:09:49;-16438.28;;;13.89;39.50
8705;BME280;4389;41.932;25.904;2024-03-22T12:12:17;-16434.28;;;13.74;39.39
8705;BME280;4389;41.932;25.904;2024-03-22T12:14:46;-16440.38;;;13.97;39.93
8705;BME280;4389;41.932;25.904;2024-03-22T12:17:14;-16434.81;;;13.76;38.72
8705;BME280;4389;41.932;25.904;2024-03-22T12:19:40;-16438.78;;;13.91;39.06
8705;BME280;4389;41.932;25.904;2024-03-22T12:22:06;-16444.38;;;14.12;38.05
8705;BME280;4389;41.932;25.904;2024-03-22T12:24:34;-16446.50;;;14.20;38.18
8705;BME280;4389;41.932;25.904;2024-03-22T12:27:00;-16452.34;;;14.42;37.83
8705;BME280;4389;41.932;25.904;2024-03-22T12:29:26;-16455.53;;;14.54;38.32
8705;BME280;4389;41.932;25.904;2024-03-22T12:31:53;-16457.91;;;14.63;38.25
8705;BME280;4389;41.932;25.904;2024-03-22T12:34:20;-16459.25;;;14.68;36.65
8705;BME280;4389;41.932;25.904;2024-03-22T12:36:47;-16448.63;;;14.28;37.58
8705;BME280;4389;41.932;25.904;2024-03-22T12:39:13;-16451.81;;;14.40;38.30
8705;BME280;4389;41.932;25.904;2024-03-22T12:41:41;-16453.94;;;14.48;37.71
8705;BME280;4389;41.932;25.904;2024-03-22T12:44:07;-16460.31;;;14.72;37.04
8705;BME280;4389;41.932;25.904;2024-03-22T12:46:34;-16459.78;;;14.70;35.98
8705;BME280;4389;41.932;25.904;2024-03-22T12:49:00;-16456.06;;;14.56;36.09
8705;BME280;4389;41.932;25.904;2024-03-22T12:51:26;-16462.44;;;14.80;36.59
8705;BME280;4389;41.932;25.904;2024-03-22T12:53:52;-16465.88;;;14.93;36.18
8705;BME280;4389;41.932;25.904;2024-03-22T12:56:21;-16470.38;;;15.10;35.60
8705;BME280;4389;41.932;25.904;2024-03-22T12:58:48;-16475.03;;;15.27;35.26
8705;BME280;4389;41.932;25.904;2024-03-22T13:01:15;-16469.31;;;15.06;33.49